createdAt,value
2023-03-12T00:00:52.232Z,66.02
2023-03-12T00:03:18.680Z,66.54
2023-03-12T00:05:45.310Z,66.57
2023-03-12T00:08:12.903Z,66.65
2023-03-12T00:10:40.571Z,66.54
2023-03-12T00:13:08.016Z,66.59
2023-03-12T00:15:38.680Z,66.73
2023-03-12T00:18:05.665Z,67.10
2023-03-12T00:20:32.792Z,66.71
2023-03-12T00:22:59.394Z,67.78
2023-03-12T00:25:25.810Z,67.15
2023-03-12T00:27:52.193Z,67.81
2023-03-12T00:30:18.810Z,67.08
2023-03-12T00:32:45.317Z,67.78
2023-03-12T00:35:12.017Z,67.43
2023-03-12T00:37:38.549Z,68.57
2023-03-12T00:40:08.372Z,68.37
2023-03-12T00:42:34.814Z,68.32
2023-03-12T00:45:01.234Z,68.59
2023-03-12T00:47:27.665Z,68.80
2023-03-12T00:49:54.091Z,69.13
2023-03-12T00:52:20.551Z,68.52
2023-03-12T00:54:46.939Z,69.52
2023-03-12T00:57:13.344Z,68.88
2023-03-12T00:59:40.476Z,68.89
2023-03-12T01:02:08.580Z,69.13
2023-03-12T01:04:35.170Z,69.21
2023-03-12T01:07:01.605Z,69.69
2023-03-12T01:09:28.197Z,69.77
2023-03-12T01:11:54.700Z,68.60
2023-03-12T01:14:21.116Z,69.38
2023-03-12T01:16:47.674Z,68.80
2023-03-12T01:19:14.129Z,68.75
2023-03-12T01:21:40.681Z,68.87
2023-03-12T01:24:07.670Z,69.34
2023-03-12T01:26:34.105Z,68.90
2023-03-12T01:29:00.534Z,69.71
2023-03-12T01:31:27.126Z,69.04
2023-03-12T01:33:54.095Z,70.06
2023-03-12T01:36:24.082Z,69.39
2023-03-12T01:38:52.231Z,68.93
2023-03-12T01:41:19.390Z,69.75
2023-03-12T01:43:46.229Z,69.65
2023-03-12T01:46:16.234Z,69.77
2023-03-12T01:48:45.689Z,69.64
2023-03-12T01:51:15.866Z,69.57
2023-03-12T01:53:47.098Z,69.11
2023-03-12T01:56:17.193Z,69.14
2023-03-12T01:58:50.429Z,69.58
2023-03-12T02:01:19.539Z,68.79
2023-03-12T02:03:50.544Z,69.05
2023-03-12T02:06:20.802Z,69.50
2023-03-12T02:08:48.224Z,68.95
2023-03-12T02:11:14.836Z,69.76
2023-03-12T02:13:41.558Z,69.36
2023-03-12T02:16:09.276Z,69.12
2023-03-12T02:18:36.070Z,69.98
2023-03-12T02:21:13.899Z,69.95
2023-03-12T02:23:57.143Z,69.56
2023-03-12T02:26:27.365Z,69.31
2023-03-12T02:28:54.627Z,69.43
2023-03-12T02:31:25.743Z,69.99
2023-03-12T02:33:55.983Z,69.53
2023-03-12T02:36:22.653Z,69.97
2023-03-12T02:38:51.001Z,70.22
2023-03-12T02:41:19.969Z,70.68
2023-03-12T02:43:51.901Z,70.90
2023-03-12T02:46:18.819Z,69.80
2023-03-12T02:48:45.305Z,69.71
2023-03-12T02:51:11.949Z,70.36
2023-03-12T02:53:38.826Z,70.40
2023-03-12T02:56:06.405Z,70.89
2023-03-12T02:58:33.800Z,70.81
2023-03-12T03:01:01.499Z,70.65
2023-03-12T03:03:27.955Z,70.80
2023-03-12T03:05:54.457Z,70.29
2023-03-12T03:08:20.947Z,70.98
2023-03-12T03:10:50.834Z,70.28
2023-03-12T03:13:17.256Z,70.53
2023-03-12T03:15:43.857Z,70.74
2023-03-12T03:18:10.345Z,70.31
2023-03-12T03:20:36.807Z,70.69
2023-03-12T03:23:03.351Z,70.40
2023-03-12T03:25:29.921Z,70.66
2023-03-12T03:27:56.436Z,70.23
2023-03-12T03:30:22.882Z,70.36
2023-03-12T03:32:51.256Z,70.09
2023-03-12T03:35:18.518Z,70.12
2023-03-12T03:37:45.135Z,68.84
2023-03-12T03:40:12.380Z,69.73
2023-03-12T03:42:39.990Z,68.92
2023-03-12T03:45:08.718Z,68.69
2023-03-12T03:47:36.138Z,68.53
2023-03-12T03:50:04.305Z,67.93
2023-03-12T03:52:31.761Z,67.91
2023-03-12T03:54:59.417Z,67.71
2023-03-12T03:57:27.028Z,67.58
2023-03-12T03:59:53.579Z,67.26
2023-03-12T04:02:20.471Z,66.80
2023-03-12T04:04:49.705Z,66.12
2023-03-12T04:07:16.470Z,66.44
2023-03-12T04:09:43.304Z,66.42
2023-03-12T04:12:10.300Z,66.53
2023-03-12T04:14:40.901Z,65.82
2023-03-12T04:17:08.737Z,66.72
2023-03-12T04:19:35.882Z,66.33
2023-03-12T04:22:04.788Z,66.44
2023-03-12T04:24:31.333Z,66.38
2023-03-12T04:26:58.892Z,66.00
2023-03-12T04:29:25.850Z,65.09
2023-03-12T04:31:52.532Z,64.90
2023-03-12T04:34:18.992Z,64.92
2023-03-12T04:36:48.344Z,64.87
2023-03-12T04:39:20.951Z,64.69
2023-03-12T04:41:49.911Z,64.51
2023-03-12T04:44:16.719Z,64.88
2023-03-12T04:46:44.367Z,64.60
2023-03-12T04:49:14.017Z,65.39
2023-03-12T04:51:42.019Z,64.70
2023-03-12T04:54:08.793Z,65.14
2023-03-12T04:56:36.612Z,65.31
2023-03-12T04:59:03.265Z,64.34
2023-03-12T05:01:32.685Z,65.01
2023-03-12T05:04:02.828Z,64.84
2023-03-12T05:06:30.615Z,64.59
2023-03-12T05:08:57.270Z,65.28
2023-03-12T05:11:23.845Z,65.07
2023-03-12T05:13:50.391Z,64.72
2023-03-12T05:16:17.828Z,64.77
2023-03-12T05:18:45.618Z,64.73
2023-03-12T05:21:15.023Z,64.96
2023-03-12T05:23:43.043Z,64.97
2023-03-12T05:26:18.432Z,65.88
2023-03-12T05:28:44.962Z,65.06
2023-03-12T05:31:12.844Z,65.82
2023-03-12T05:33:40.035Z,65.69
2023-03-12T05:36:08.999Z,65.14
2023-03-12T05:38:35.637Z,65.15
2023-03-12T05:41:02.573Z,65.15
2023-03-12T05:43:32.727Z,65.31
2023-03-12T05:46:01.121Z,65.38
2023-03-12T05:48:28.350Z,65.81
2023-03-12T05:50:56.154Z,65.89
2023-03-12T05:53:23.101Z,66.26
2023-03-12T05:55:50.005Z,66.11
2023-03-12T05:58:16.541Z,66.57
2023-03-12T06:00:44.488Z,67.54
2023-03-12T06:03:13.319Z,67.54
2023-03-12T06:05:41.066Z,67.54
2023-03-12T06:08:07.666Z,67.83
2023-03-12T06:10:34.344Z,68.44
2023-03-12T06:13:00.926Z,69.13
2023-03-12T06:15:27.471Z,68.62
2023-03-12T06:17:53.962Z,69.25
2023-03-12T06:20:20.552Z,69.62
2023-03-12T06:22:47.156Z,70.03
2023-03-12T06:25:14.688Z,69.75
2023-03-12T06:27:41.485Z,70.10
2023-03-12T06:30:09.272Z,70.41
2023-03-12T06:32:35.753Z,70.91
2023-03-12T06:35:04.317Z,71.30
2023-03-12T06:37:30.745Z,71.93
2023-03-12T06:39:57.282Z,71.79
2023-03-12T06:42:23.752Z,72.64
2023-03-12T06:44:50.334Z,72.35
2023-03-12T06:47:17.786Z,72.53
2023-03-12T06:49:44.587Z,73.14
2023-03-12T06:52:11.335Z,73.28
2023-03-12T06:54:38.059Z,74.25
2023-03-12T06:57:04.473Z,74.47
2023-03-12T06:59:30.997Z,74.85
2023-03-12T07:01:57.460Z,75.19
2023-03-12T07:04:23.891Z,75.94
2023-03-12T07:06:51.281Z,75.72
2023-03-12T07:09:18.707Z,75.77
2023-03-12T07:11:45.327Z,76.20
2023-03-12T07:14:12.099Z,76.63
2023-03-12T07:16:38.629Z,77.20
2023-03-12T07:19:05.057Z,77.74
2023-03-12T07:21:31.675Z,77.75
2023-03-12T07:23:58.309Z,79.04
2023-03-12T07:26:24.738Z,78.94
2023-03-12T07:28:51.808Z,79.40
2023-03-12T07:31:18.251Z,79.68
2023-03-12T07:33:44.795Z,79.77
2023-03-12T07:36:11.438Z,80.22
2023-03-12T07:38:37.953Z,80.47
2023-03-12T07:41:04.558Z,81.20
2023-03-12T07:43:31.005Z,81.32
2023-03-12T07:45:58.598Z,81.86
2023-03-12T07:48:25.130Z,81.69
2023-03-12T07:50:52.161Z,81.94
2023-03-12T07:53:19.146Z,82.22
2023-03-12T07:55:46.931Z,81.92
2023-03-12T07:58:15.500Z,82.70
2023-03-12T08:00:42.048Z,82.74
2023-03-12T08:03:08.819Z,83.01
2023-03-12T08:05:35.439Z,82.85
2023-03-12T08:08:01.903Z,83.12
2023-03-12T08:10:28.456Z,83.43
2023-03-12T08:12:54.973Z,83.15
2023-03-12T08:15:21.400Z,83.80
2023-03-12T08:17:48.077Z,83.45
2023-03-12T08:20:14.783Z,83.74
2023-03-12T08:22:41.218Z,83.65
2023-03-12T08:25:08.700Z,83.58
2023-03-12T08:27:35.325Z,83.66
2023-03-12T08:30:01.810Z,84.22
2023-03-12T08:32:28.319Z,84.49
2023-03-12T08:34:54.796Z,84.64
2023-03-12T08:37:21.936Z,84.67
2023-03-12T08:39:48.323Z,84.82
2023-03-12T08:42:14.729Z,85.00
2023-03-12T08:44:41.180Z,85.27
2023-03-12T08:47:07.595Z,85.56
2023-03-12T08:49:34.058Z,85.48
2023-03-12T08:52:00.539Z,85.44
2023-03-12T08:54:26.965Z,86.07
2023-03-12T08:56:53.679Z,86.10
2023-03-12T08:59:22.196Z,85.82
2023-03-12T09:01:49.026Z,86.19
2023-03-12T09:04:16.392Z,85.99
2023-03-12T09:06:43.228Z,85.85
2023-03-12T09:09:09.805Z,86.36
2023-03-12T09:11:39.567Z,87.23
2023-03-12T09:16:52.446Z,87.47
2023-03-12T09:19:19.021Z,87.68
2023-03-12T09:21:45.469Z,88.02
2023-03-12T09:24:12.024Z,88.18
2023-03-12T09:26:38.429Z,87.55
2023-03-12T09:29:04.898Z,88.11
2023-03-12T09:31:31.452Z,88.07
2023-03-12T09:33:57.924Z,87.54
2023-03-12T09:36:24.330Z,88.53
2023-03-12T09:38:50.737Z,88.09
2023-03-12T09:41:23.911Z,88.61
2023-03-12T09:44:02.280Z,88.81
2023-03-12T09:46:40.294Z,89.45
2023-03-12T09:49:16.357Z,89.52
2023-03-12T09:51:47.129Z,88.82
2023-03-12T09:54:24.726Z,89.97
2023-03-12T09:56:54.898Z,89.31
2023-03-12T09:59:22.290Z,89.62
2023-03-12T10:01:58.967Z,89.69
2023-03-12T10:04:59.014Z,90.13
2023-03-12T10:07:34.859Z,89.61
2023-03-12T10:10:32.685Z,90.20
2023-03-12T10:13:47.280Z,90.64
2023-03-12T10:16:28.632Z,91.14
2023-03-12T10:19:07.758Z,91.08
2023-03-12T10:21:44.392Z,91.60
2023-03-12T10:24:25.469Z,91.17
2023-03-12T10:26:56.405Z,91.54
2023-03-12T10:29:27.093Z,92.06
2023-03-12T10:31:53.456Z,92.16
2023-03-12T10:35:14.145Z,92.42
2023-03-12T10:37:49.432Z,93.13
2023-03-12T10:40:19.274Z,92.85
2023-03-12T10:42:46.143Z,92.79
2023-03-12T10:45:28.395Z,93.50
2023-03-12T10:48:24.524Z,92.78
2023-03-12T10:51:12.388Z,94.04
2023-03-12T10:53:47.929Z,93.94
2023-03-12T10:56:20.439Z,93.74
2023-03-12T10:58:53.311Z,93.81
2023-03-12T11:01:25.599Z,94.94
2023-03-12T11:04:07.344Z,94.40
2023-03-12T11:06:33.997Z,94.45
2023-03-12T11:09:16.693Z,94.46
2023-03-12T11:11:47.365Z,95.42
2023-03-12T11:14:20.029Z,95.72
2023-03-12T11:16:46.580Z,95.85
2023-03-12T11:19:25.639Z,95.80
2023-03-12T11:21:57.210Z,95.96
2023-03-12T11:24:23.652Z,95.63
2023-03-12T11:26:59.865Z,96.13
2023-03-12T11:29:33.254Z,96.73
2023-03-12T11:32:05.078Z,96.30
2023-03-12T11:34:37.217Z,95.46
2023-03-12T11:37:12.886Z,96.24
2023-03-12T11:40:09.733Z,97.01
2023-03-12T11:43:10.492Z,96.53
2023-03-12T11:45:42.124Z,96.85
2023-03-12T11:48:15.746Z,96.15
2023-03-12T11:50:45.231Z,96.37
2023-03-12T11:53:30.365Z,96.85
2023-03-12T11:56:02.748Z,97.58
2023-03-12T11:58:49.940Z,97.55
2023-03-12T12:01:24.377Z,97.48
2023-03-12T12:04:20.052Z,97.52
2023-03-12T12:06:55.160Z,96.78
2023-03-12T12:09:32.232Z,96.53
2023-03-12T12:12:22.049Z,96.14
2023-03-12T12:15:06.766Z,96.98
2023-03-12T12:17:59.323Z,96.01
2023-03-12T12:20:40.993Z,95.74
2023-03-12T12:23:16.253Z,96.10
2023-03-12T12:26:13.899Z,95.60
2023-03-12T12:28:54.099Z,95.55
2023-03-12T12:31:40.449Z,95.35
2023-03-12T12:34:38.152Z,95.21
2023-03-12T12:37:31.240Z,94.99
2023-03-12T12:40:20.098Z,95.02
2023-03-12T12:43:00.770Z,95.19
2023-03-12T12:45:30.422Z,94.52
2023-03-12T12:48:07.173Z,94.64
2023-03-12T12:50:38.243Z,95.35
2023-03-12T12:53:21.502Z,95.31
2023-03-12T12:56:01.505Z,95.57
2023-03-12T12:59:03.231Z,95.74
2023-03-12T13:01:32.292Z,95.89
2023-03-12T13:04:24.496Z,95.57
2023-03-12T13:07:20.836Z,95.49
2023-03-12T13:09:52.793Z,95.29
2023-03-12T13:12:35.937Z,96.06
2023-03-12T13:15:28.148Z,95.80
2023-03-12T13:17:54.518Z,95.53
2023-03-12T13:20:24.430Z,96.19
2023-03-12T13:23:24.234Z,95.91
2023-03-12T13:26:18.650Z,96.03
2023-03-12T13:29:02.697Z,96.61
2023-03-12T13:31:37.649Z,96.10
2023-03-12T13:34:19.531Z,96.20
2023-03-12T13:36:50.346Z,96.28
2023-03-12T13:39:16.695Z,95.70
2023-03-12T13:41:49.707Z,95.12
2023-03-12T13:44:39.234Z,94.55
2023-03-12T13:47:11.454Z,94.35
2023-03-12T13:49:44.931Z,93.53
2023-03-12T13:52:20.370Z,93.09
2023-03-12T13:54:57.607Z,92.82
2023-03-12T13:57:39.099Z,92.44
2023-03-12T14:00:15.256Z,91.97
2023-03-12T14:02:49.605Z,92.36
2023-03-12T14:05:18.206Z,92.64
2023-03-12T14:08:11.379Z,92.67
2023-03-12T14:11:05.693Z,92.22
2023-03-12T14:13:58.612Z,92.58
2023-03-12T14:16:39.266Z,92.22
2023-03-12T14:19:06.256Z,92.40
2023-03-12T14:21:39.951Z,92.11
2023-03-12T14:24:07.996Z,92.52
2023-03-12T14:26:36.600Z,92.52
2023-03-12T14:29:25.376Z,92.01
2023-03-12T14:31:56.509Z,91.59
2023-03-12T14:34:27.041Z,91.06
2023-03-12T14:37:16.293Z,90.75
2023-03-12T14:39:59.253Z,90.96
2023-03-12T14:42:32.616Z,89.68
2023-03-12T14:45:05.945Z,89.39
2023-03-12T14:47:47.631Z,88.36
2023-03-12T14:50:18.609Z,88.37
2023-03-12T14:52:45.212Z,87.58
2023-03-12T14:55:18.701Z,87.22
2023-03-12T14:57:45.625Z,87.07
2023-03-12T15:00:27.404Z,86.99
2023-03-12T15:02:58.008Z,87.06
2023-03-12T15:05:25.006Z,86.98
2023-03-12T15:07:57.160Z,86.13
2023-03-12T15:10:27.126Z,86.46
2023-03-12T15:12:56.544Z,86.21
2023-03-12T15:15:44.116Z,86.15
2023-03-12T15:18:18.080Z,85.98
2023-03-12T15:20:46.629Z,86.29
2023-03-12T15:23:15.276Z,86.35
2023-03-12T15:25:42.249Z,86.50
2023-03-12T15:28:11.492Z,86.61
2023-03-12T15:30:39.455Z,86.83
2023-03-12T15:33:14.948Z,87.02
2023-03-12T15:36:02.485Z,87.32
2023-03-12T15:38:32.088Z,87.07
2023-03-12T15:41:06.098Z,86.11
2023-03-12T15:43:33.400Z,86.25
2023-03-12T15:46:03.036Z,86.83
2023-03-12T15:48:40.493Z,87.19
2023-03-12T15:51:16.314Z,87.40
2023-03-12T15:53:42.707Z,87.63
2023-03-12T15:56:09.418Z,87.25
2023-03-12T15:58:38.798Z,87.20
2023-03-12T16:01:12.943Z,87.35
2023-03-12T16:03:40.684Z,87.13
2023-03-12T16:06:16.118Z,86.79
2023-03-12T16:08:52.618Z,86.53
2023-03-12T16:11:25.113Z,86.52
2023-03-12T16:13:58.077Z,86.01
2023-03-12T16:16:24.631Z,85.95
2023-03-12T16:18:51.032Z,86.08
2023-03-12T16:21:17.424Z,86.17
2023-03-12T16:23:43.943Z,85.93
2023-03-12T16:26:13.076Z,85.91
2023-03-12T16:28:39.905Z,86.00
2023-03-12T16:31:14.734Z,85.82
2023-03-12T16:33:43.562Z,85.67
2023-03-12T16:36:15.797Z,85.11
2023-03-12T16:38:43.346Z,84.72
2023-03-12T16:41:13.375Z,84.36
2023-03-12T16:43:41.534Z,83.63
2023-03-12T16:46:09.301Z,83.63
2023-03-12T16:48:36.449Z,83.65
2023-03-12T16:51:03.483Z,82.92
2023-03-12T16:53:30.101Z,83.24
2023-03-12T16:56:01.767Z,83.25
2023-03-12T16:58:29.353Z,83.11
2023-03-12T17:00:56.820Z,83.14
2023-03-12T17:03:33.778Z,83.43
2023-03-12T17:06:01.553Z,82.59
2023-03-12T17:08:27.956Z,82.33
2023-03-12T17:10:56.484Z,82.27
2023-03-12T17:13:28.483Z,82.45
2023-03-12T17:15:56.207Z,82.59
2023-03-12T17:18:22.991Z,82.17
2023-03-12T17:20:51.646Z,82.47
2023-03-12T17:23:18.185Z,82.55
2023-03-12T17:25:45.414Z,82.23
2023-03-12T17:28:13.524Z,82.46
2023-03-12T17:30:39.938Z,82.52
2023-03-12T17:33:10.604Z,82.52
2023-03-12T17:35:37.180Z,82.15
2023-03-12T17:38:04.041Z,82.49
2023-03-12T17:40:30.441Z,82.00
2023-03-12T17:42:56.910Z,82.01
2023-03-12T17:45:23.550Z,82.28
2023-03-12T17:47:50.008Z,82.18
2023-03-12T17:50:17.176Z,81.89
2023-03-12T17:52:43.800Z,81.97
2023-03-12T17:55:11.809Z,82.44
2023-03-12T17:57:38.750Z,82.12
2023-03-12T18:00:14.830Z,81.94
2023-03-12T18:02:41.979Z,82.11
2023-03-12T18:05:10.089Z,82.22
2023-03-12T18:07:36.891Z,81.87
2023-03-12T18:10:05.623Z,82.47
2023-03-12T18:12:32.876Z,82.28
2023-03-12T18:14:59.464Z,82.22
2023-03-12T18:17:25.924Z,82.53
2023-03-12T18:19:52.396Z,82.47
2023-03-12T18:22:19.874Z,82.90
2023-03-12T18:24:46.453Z,82.77
2023-03-12T18:27:12.927Z,82.68
2023-03-12T18:29:41.047Z,82.42
2023-03-12T18:32:08.009Z,83.24
2023-03-12T18:34:34.505Z,83.21
2023-03-12T18:37:00.937Z,82.98
2023-03-12T18:39:27.365Z,83.20
2023-03-12T18:41:56.922Z,82.30
2023-03-12T18:44:24.442Z,83.00
2023-03-12T18:46:51.782Z,83.13
2023-03-12T18:49:18.426Z,82.99
2023-03-12T18:51:45.065Z,81.96
2023-03-12T18:54:12.711Z,82.60
2023-03-12T18:56:40.766Z,82.02
2023-03-12T18:59:09.815Z,81.49
2023-03-12T19:01:36.569Z,82.51
2023-03-12T19:04:03.149Z,82.19
2023-03-12T19:06:35.045Z,82.18
2023-03-12T19:09:09.638Z,81.61
2023-03-12T19:11:36.286Z,80.91
2023-03-12T19:14:03.329Z,81.00
2023-03-12T19:16:30.607Z,81.19
2023-03-12T19:18:57.838Z,80.73
2023-03-12T19:21:24.462Z,80.07
2023-03-12T19:23:52.071Z,80.46
2023-03-12T19:26:18.479Z,79.60
2023-03-12T19:28:44.980Z,79.51
2023-03-12T19:31:14.944Z,78.92
2023-03-12T19:33:42.854Z,78.92
2023-03-12T19:36:09.416Z,79.13
2023-03-12T19:38:36.189Z,78.22
2023-03-12T19:41:02.632Z,78.06
2023-03-12T19:43:29.137Z,77.85
2023-03-12T19:45:55.773Z,77.33
2023-03-12T19:48:22.611Z,77.12
2023-03-12T19:50:49.646Z,77.38
2023-03-12T19:53:17.667Z,77.21
2023-03-12T19:55:46.885Z,77.03
2023-03-12T19:58:13.340Z,76.50
2023-03-12T20:00:41.126Z,76.58
2023-03-12T20:03:08.081Z,75.96
2023-03-12T20:05:34.653Z,76.77
2023-03-12T20:08:01.069Z,76.26
2023-03-12T20:10:29.247Z,76.47
2023-03-12T20:12:55.795Z,76.65
2023-03-12T20:15:22.215Z,76.21
2023-03-12T20:17:48.659Z,76.14
2023-03-12T20:20:16.528Z,76.63
2023-03-12T20:22:43.073Z,76.18
2023-03-12T20:25:10.368Z,76.43
2023-03-12T20:27:38.418Z,76.55
2023-03-12T20:30:05.698Z,76.21
2023-03-12T20:32:32.205Z,76.93
2023-03-12T20:34:58.668Z,76.72
2023-03-12T20:37:25.117Z,76.62
2023-03-12T20:39:51.496Z,76.17
2023-03-12T20:42:17.931Z,76.47
2023-03-12T20:44:44.334Z,76.90
2023-03-12T20:47:10.798Z,76.36
2023-03-12T20:49:37.205Z,76.96
2023-03-12T20:52:03.763Z,76.85
2023-03-12T20:54:30.318Z,76.86
2023-03-12T20:56:56.754Z,77.52
2023-03-12T20:59:23.126Z,76.91
2023-03-12T21:01:49.516Z,77.02
2023-03-12T21:04:15.961Z,77.38
2023-03-12T21:06:42.418Z,77.82
2023-03-12T21:09:08.822Z,77.75
2023-03-12T21:11:35.214Z,77.94
2023-03-12T21:14:01.641Z,78.07
2023-03-12T21:16:28.102Z,77.51
2023-03-12T21:18:56.438Z,77.30
2023-03-12T21:21:23.219Z,77.38
2023-03-12T21:23:49.769Z,78.14
2023-03-12T21:26:18.167Z,78.23
2023-03-12T21:28:45.027Z,77.84
2023-03-12T21:31:14.024Z,78.36
2023-03-12T21:33:40.639Z,78.00
2023-03-12T21:36:09.456Z,78.13
2023-03-12T21:38:37.103Z,78.93
2023-03-12T21:41:08.561Z,78.11
2023-03-12T21:43:35.073Z,78.91
2023-03-12T21:46:10.148Z,78.90
2023-03-12T21:48:37.021Z,79.09
2023-03-12T21:51:08.857Z,79.23
2023-03-12T21:53:36.248Z,78.34
2023-03-12T21:56:04.350Z,78.68
2023-03-12T21:58:31.858Z,78.36
2023-03-12T22:01:07.577Z,79.15
2023-03-12T22:03:34.469Z,79.10
2023-03-12T22:06:01.022Z,78.60
2023-03-12T22:08:27.488Z,79.28
2023-03-12T22:10:53.916Z,79.12
2023-03-12T22:13:20.365Z,79.68
2023-03-12T22:15:52.736Z,79.16
2023-03-12T22:18:19.168Z,79.55
2023-03-12T22:20:53.018Z,79.56
2023-03-12T22:23:20.234Z,79.63
2023-03-12T22:25:46.699Z,79.53
2023-03-12T22:28:13.997Z,79.99
2023-03-12T22:30:40.402Z,80.17
2023-03-12T22:33:06.981Z,80.09
2023-03-12T22:35:33.405Z,79.69
2023-03-12T22:37:59.788Z,80.15
2023-03-12T22:40:26.607Z,80.00
2023-03-12T22:42:53.924Z,79.95
2023-03-12T22:45:20.312Z,80.31
2023-03-12T22:47:46.730Z,79.91
2023-03-12T22:50:13.305Z,80.86
2023-03-12T22:52:40.029Z,80.27
2023-03-12T22:55:06.858Z,80.23
2023-03-12T22:57:34.704Z,80.80
2023-03-12T23:00:01.135Z,80.73
2023-03-12T23:02:27.636Z,80.31
2023-03-12T23:04:54.090Z,81.02
2023-03-12T23:07:20.658Z,81.45
2023-03-12T23:09:47.536Z,81.40
2023-03-12T23:12:13.930Z,81.30
2023-03-12T23:14:40.357Z,81.44
2023-03-12T23:17:06.754Z,81.85
2023-03-12T23:19:33.577Z,82.01
2023-03-12T23:22:00.002Z,81.18
2023-03-12T23:24:26.390Z,81.53
2023-03-12T23:26:54.781Z,81.75
2023-03-12T23:29:21.201Z,82.23
2023-03-12T23:31:47.626Z,81.96
2023-03-12T23:34:14.055Z,81.84
2023-03-12T23:36:40.707Z,82.49
2023-03-12T23:39:07.104Z,81.83
2023-03-12T23:41:33.757Z,82.58
2023-03-12T23:44:00.289Z,81.83
2023-03-12T23:46:27.417Z,82.33
2023-03-12T23:48:54.164Z,82.24
2023-03-12T23:51:32.571Z,82.38
2023-03-12T23:54:01.822Z,82.00
2023-03-12T23:56:33.674Z,82.11
2023-03-12T23:59:00.142Z,83.06
